Time;durP1;ratioP1;P1;durP2;ratioP2;P2;SDS_P1;SDS_P2;PMS_P1;PMS_P2;Temp;Humidity;BMP_temperature;BMP_pressure;BME280_temperature;BME280_humidity;BME280_pressure;Samples;Min_cycle;Max_cycle;Signal;HPM_P1;HPM_P2
2022/03/25 00:02:22;;;;;;;13.47;11.03;;;;;;;10.32;41.51;99729.66;6917879;28;20219;-82
2022/03/25 00:05:43;;;;;;;17.07;11.40;;;;;;;9.85;42.41;99755.91;6917603;28;20223;-83
2022/03/25 00:09:05;;;;;;;14.27;10.43;;;;;;;10.06;42.67;99740.84;6918311;28;20233;-82
2022/03/25 00:12:27;;;;;;;17.00;11.73;;;;;;;9.89;42.82;99747.31;6919376;28;20697;-83
2022/03/25 00:15:48;;;;;;;16.63;11.87;;;;;;;9.54;43.58;99744.31;6918385;28;20222;-83
2022/03/25 00:19:11;;;;;;;15.23;11.03;;;;;;;9.36;44.46;99741.88;6917851;28;20285;-83
2022/03/25 00:22:33;;;;;;;15.53;11.77;;;;;;;9.16;44.64;99748.66;6918183;28;20241;-83
2022/03/25 00:25:54;;;;;;;17.03;11.77;;;;;;;9.24;44.71;99750.50;6917500;28;20890;-83
2022/03/25 00:29:16;;;;;;;17.70;12.10;;;;;;;9.95;42.86;99753.81;6917462;28;20223;-83
2022/03/25 00:32:37;;;;;;;16.27;11.73;;;;;;;9.99;42.19;99753.28;6918122;28;20215;-83
2022/03/25 00:36:01;;;;;;;16.60;11.63;;;;;;;9.87;42.59;99754.72;6917692;28;20239;-83
2022/03/25 00:39:23;;;;;;;15.00;11.10;;;;;;;9.82;42.62;99749.03;6919834;28;20240;-83
2022/03/25 00:42:45;;;;;;;17.90;11.37;;;;;;;9.55;43.69;99740.59;6922451;28;20297;-83
2022/03/25 00:46:07;;;;;;;15.73;11.20;;;;;;;9.58;43.69;99746.47;6920165;28;20224;-83
2022/03/25 00:49:29;;;;;;;19.00;11.97;;;;;;;9.19;43.92;99713.34;6921951;28;20250;-83
2022/03/25 00:52:52;;;;;;;15.20;12.13;;;;;;;9.06;44.87;99755.25;6922062;28;20682;-83
2022/03/25 00:56:14;;;;;;;17.23;12.33;;;;;;;9.17;44.84;99741.44;6921135;28;20219;-83
2022/03/25 00:59:36;;;;;;;17.97;12.50;;;;;;;9.51;44.00;99734.72;6921635;28;20234;-83
2022/03/25 01:02:57;;;;;;;16.90;13.20;;;;;;;9.24;43.95;99685.91;6922206;28;20574;-83
2022/03/25 01:06:19;;;;;;;23.27;12.63;;;;;;;9.68;42.81;99735.50;6921594;28;20684;-83
2022/03/25 01:09:42;;;;;;;16.20;12.50;;;;;;;9.39;42.32;99665.31;6922264;28;20262;-83
2022/03/25 01:13:04;;;;;;;15.90;12.43;;;;;;;9.64;42.89;99729.59;6921630;28;20204;-83
2022/03/25 01:16:26;;;;;;;17.13;13.23;;;;;;;9.22;43.46;99696.84;6921180;28;20581;-83
2022/03/25 01:19:47;;;;;;;16.43;12.57;;;;;;;9.30;43.90;99721.03;6920187;28;20626;-82
2022/03/25 01:23:09;;;;;;;17.70;12.53;;;;;;;8.69;44.87;99712.00;6919128;28;20695;-83
2022/03/25 01:26:32;;;;;;;16.20;12.70;;;;;;;8.91;45.38;99719.31;6914872;28;20215;-85
2022/03/25 01:29:54;;;;;;;21.13;13.67;;;;;;;8.55;45.83;99730.66;6915331;28;20231;-85
2022/03/25 01:33:16;;;;;;;19.17;13.17;;;;;;;8.81;45.24;99725.91;6915662;28;20200;-85
2022/03/25 01:36:38;;;;;;;24.50;15.07;;;;;;;9.03;44.79;99718.78;6915150;28;20215;-84
2022/03/25 01:40:00;;;;;;;18.00;14.10;;;;;;;8.83;44.87;99705.91;6915974;28;20231;-85
2022/03/25 01:43:22;;;;;;;22.00;14.30;;;;;;;8.87;44.92;99727.91;6914414;28;20211;-84
2022/03/25 01:46:44;;;;;;;19.43;13.90;;;;;;;8.97;44.89;99718.66;6914806;28;20243;-84
2022/03/25 01:50:14;;;;;;;22.23;14.27;;;;;;;8.51;45.72;99722.09;6915805;28;20664;-84
2022/03/25 01:53:35;;;;;;;19.80;13.97;;;;;;;8.21;46.72;99716.56;6915916;28;20200;-83
2022/03/25 01:57:00;;;;;;;20.03;13.17;;;;;;;8.31;46.31;99730.69;6920477;28;20228;-83
2022/03/25 02:00:23;;;;;;;19.80;13.50;;;;;;;8.39;46.21;99690.38;6919922;28;20231;-82
2022/03/25 02:03:45;;;;;;;20.10;14.17;;;;;;;8.49;46.06;99712.53;6919510;28;20215;-83
2022/03/25 02:07:07;;;;;;;18.33;13.83;;;;;;;8.81;44.46;99702.56;6918919;28;20215;-82
2022/03/25 02:10:29;;;;;;;21.03;13.27;;;;;;;9.15;43.98;99730.03;6918546;28;20211;-83
2022/03/25 02:13:51;;;;;;;18.30;13.20;;;;;;;8.53;45.60;99725.44;6917924;28;20215;-83
2022/03/25 02:17:15;;;;;;;18.43;13.43;;;;;;;8.47;45.95;99731.50;6916317;28;20232;-83
2022/03/25 02:20:37;;;;;;;18.77;13.83;;;;;;;8.86;45.26;99720.84;6914747;28;20250;-83
2022/03/25 02:24:00;;;;;;;18.23;13.37;;;;;;;8.56;44.89;99738.56;6917516;28;20358;-83
2022/03/25 02:27:24;;;;;;;19.77;13.47;;;;;;;8.55;45.13;99744.91;6918305;28;20715;-83
2022/03/25 02:30:46;;;;;;;19.67;14.30;;;;;;;8.48;45.61;99729.66;6924203;28;20204;-83
2022/03/25 02:34:09;;;;;;;20.13;14.43;;;;;;;7.87;46.91;99703.25;6925383;28;20366;-82
2022/03/25 02:37:31;;;;;;;21.00;14.23;;;;;;;8.04;46.79;99717.53;6924578;28;20250;-83
2022/03/25 02:40:54;;;;;;;21.50;14.97;;;;;;;8.29;46.33;99746.97;6923927;28;20239;-83
2022/03/25 02:44:16;;;;;;;19.00;13.67;;;;;;;7.75;46.38;99663.47;6922932;28;20215;-83
2022/03/25 02:47:38;;;;;;;20.63;14.27;;;;;;;7.86;47.62;99744.53;6923309;28;20232;-83
2022/03/25 02:50:59;;;;;;;20.10;14.53;;;;;;;7.86;47.18;99723.06;6923373;28;20238;-83
2022/03/25 02:54:21;;;;;;;19.67;13.90;;;;;;;8.14;46.29;99719.03;6923403;28;20237;-83
2022/03/25 02:57:44;;;;;;;20.60;14.83;;;;;;;8.35;46.20;99740.91;6922832;28;20231;-83
2022/03/25 03:01:06;;;;;;;23.07;13.43;;;;;;;8.21;46.38;99733.53;6923865;28;20263;-83
2022/03/25 03:04:28;;;;;;;18.40;14.13;;;;;;;7.90;46.76;99694.84;6920039;28;20214;-84
2022/03/25 03:07:50;;;;;;;22.53;14.83;;;;;;;7.99;46.97;99731.47;6918607;28;20235;-84
2022/03/25 03:11:12;;;;;;;20.83;14.87;;;;;;;7.93;46.93;99724.09;6922047;28;20327;-84
2022/03/25 03:14:36;;;;;;;21.87;14.33;;;;;;;7.86;47.64;99738.31;6920836;28;20195;-85
2022/03/25 03:17:57;;;;;;;22.27;14.20;;;;;;;7.74;47.45;99732.44;6918632;28;20242;-84
2022/03/25 03:21:20;;;;;;;33.53;22.13;;;;;;;7.84;47.26;99730.44;6919307;28;20615;-84
2022/03/25 03:24:42;;;;;;;22.57;15.20;;;;;;;7.89;47.50;99738.00;6918752;28;20207;-85
2022/03/25 03:28:05;;;;;;;22.37;16.10;;;;;;;7.62;47.94;99732.91;6919166;28;20262;-85
2022/03/25 03:31:28;;;;;;;23.90;15.47;;;;;;;7.40;49.11;99731.66;6921549;28;20204;-85
2022/03/25 03:34:49;;;;;;;22.83;15.80;;;;;;;7.59;48.42;99734.06;6921540;28;20242;-85
2022/03/25 03:38:11;;;;;;;21.23;15.30;;;;;;;7.78;47.31;99696.19;6920357;28;20219;-84
2022/03/25 03:41:32;;;;;;;23.00;15.70;;;;;;;7.54;48.44;99733.72;6921625;28;20227;-84
2022/03/25 03:44:54;;;;;;;22.43;15.73;;;;;;;7.59;47.85;99728.69;6921750;28;20246;-84
2022/03/25 03:48:17;;;;;;;23.07;16.33;;;;;;;7.57;48.47;99708.41;6922004;28;20708;-84
2022/03/25 03:51:39;;;;;;;26.00;16.73;;;;;;;7.79;47.02;99727.41;6922360;28;20290;-84
2022/03/25 03:55:00;;;;;;;26.50;17.10;;;;;;;7.56;47.99;99729.06;6922626;28;20215;-85
2022/03/25 03:58:22;;;;;;;20.73;14.77;;;;;;;7.42;48.20;99723.47;6923993;28;20321;-85
2022/03/25 04:01:44;;;;;;;26.43;16.13;;;;;;;7.23;48.60;99721.88;6923817;28;20227;-84
2022/03/25 04:05:10;;;;;;;23.27;15.73;;;;;;;7.13;49.08;99733.75;6923889;28;20208;-84
2022/03/25 04:08:32;;;;;;;22.50;16.23;;;;;;;7.37;48.65;99733.84;6923186;28;20281;-85
2022/03/25 04:11:54;;;;;;;25.20;15.80;;;;;;;7.38;48.42;99735.53;6923696;28;20227;-85
2022/03/25 04:15:16;;;;;;;25.83;15.67;;;;;;;7.34;48.42;99713.53;6923857;28;20203;-84
2022/03/25 04:18:37;;;;;;;21.37;15.13;;;;;;;7.51;47.49;99707.22;6922467;28;20231;-84
2022/03/25 04:22:00;;;;;;;24.50;14.67;;;;;;;7.60;47.80;99722.31;6922924;28;20224;-85
2022/03/25 04:25:22;;;;;;;22.57;15.47;;;;;;;7.37;47.35;99712.38;6923426;28;20208;-85
2022/03/25 04:28:43;;;;;;;24.10;16.70;;;;;;;7.35;48.75;99735.81;6922176;28;20224;-85
2022/03/25 04:32:06;;;;;;;30.80;20.17;;;;;;;7.30;48.71;99722.09;6922303;28;20211;-84
2022/03/25 04:35:28;;;;;;;30.43;20.27;;;;;;;7.59;48.20;99720.66;6922002;28;20219;-84
2022/03/25 04:38:51;;;;;;;25.07;16.00;;;;;;;7.19;48.55;99699.06;6920809;28;20227;-85
2022/03/25 04:42:13;;;;;;;24.70;16.97;;;;;;;7.16;49.20;99709.28;6921576;28;20223;-85
2022/03/25 04:45:36;;;;;;;31.57;17.57;;;;;;;6.53;49.02;99633.78;6920842;28;20211;-85
2022/03/25 04:48:58;;;;;;;24.80;16.57;;;;;;;7.11;49.03;99703.56;6920594;28;20619;-85
2022/03/25 04:52:19;;;;;;;25.67;16.47;;;;;;;7.07;49.20;99729.84;6919824;28;20203;-84
2022/03/25 04:55:42;;;;;;;28.53;17.40;;;;;;;6.92;49.28;99696.63;6920185;28;20271;-84
2022/03/25 04:59:04;;;;;;;23.83;16.27;;;;;;;7.09;49.48;99717.16;6922645;28;20231;-84
2022/03/25 05:02:26;;;;;;;26.27;17.07;;;;;;;7.04;49.36;99724.81;6925071;28;20223;-84
2022/03/25 05:05:48;;;;;;;26.43;17.23;;;;;;;7.05;48.83;99710.41;6924337;28;20219;-84
2022/03/25 05:09:10;;;;;;;26.17;16.73;;;;;;;7.15;48.77;99735.28;6924695;28;20291;-83
2022/03/25 05:12:37;;;;;;;23.47;16.67;;;;;;;7.25;48.86;99737.81;6925197;28;20204;-84
2022/03/25 05:15:59;;;;;;;26.37;17.30;;;;;;;7.24;48.97;99738.81;6924441;28;20766;-83
2022/03/25 05:19:21;;;;;;;28.53;18.37;;;;;;;7.16;48.52;99736.94;6925492;28;20692;-83
2022/03/25 05:22:42;;;;;;;26.53;16.80;;;;;;;7.07;48.82;99726.34;6925401;28;20212;-83
2022/03/25 05:26:05;;;;;;;25.77;17.20;;;;;;;7.04;48.91;99753.47;6926601;28;20211;-82
2022/03/25 05:29:28;;;;;;;28.07;17.80;;;;;;;7.15;48.98;99750.50;6928147;28;20224;-82
2022/03/25 05:32:51;;;;;;;27.23;17.43;;;;;;;6.71;49.21;99693.47;6928507;28;20208;-83
2022/03/25 05:36:12;;;;;;;25.37;17.10;;;;;;;7.25;48.42;99746.69;6924363;28;20599;-86
2022/03/25 05:39:34;;;;;;;27.97;17.77;;;;;;;7.04;48.59;99748.09;6924891;28;20277;-84
2022/03/25 05:42:57;;;;;;;27.07;16.83;;;;;;;6.89;49.50;99745.16;6925195;28;20208;-84
2022/03/25 05:46:23;;;;;;;26.67;17.63;;;;;;;7.00;49.10;99750.25;6925626;28;20231;-84
2022/03/25 05:49:48;;;;;;;25.30;17.47;;;;;;;7.36;48.49;99757.13;6926996;28;20260;-84
2022/03/25 05:53:10;;;;;;;25.33;17.63;;;;;;;7.27;48.69;99752.75;6931571;28;20200;-85
2022/03/25 05:56:32;;;;;;;26.43;18.23;;;;;;;7.34;48.10;99732.31;6925415;28;20644;-85
2022/03/25 05:59:57;;;;;;;28.53;17.97;;;;;;;7.62;47.98;99738.28;6922633;28;20228;-84
2022/03/25 06:03:20;;;;;;;25.47;16.77;;;;;;;7.89;46.81;99743.38;6926207;28;20681;-83
2022/03/25 06:06:42;;;;;;;27.53;16.87;;;;;;;7.45;46.74;99675.69;6928579;28;20200;-84
2022/03/25 06:10:04;;;;;;;25.17;17.17;;;;;;;7.77;46.88;99737.47;6928878;28;20289;-84
2022/03/25 06:13:27;;;;;;;29.63;17.47;;;;;;;7.92;47.12;99737.66;6929166;28;20200;-84
2022/03/25 06:16:48;;;;;;;25.67;17.17;;;;;;;7.83;47.23;99736.00;6926062;28;20349;-83
2022/03/25 06:20:13;;;;;;;27.90;17.77;;;;;;;8.85;45.42;99752.28;6919885;28;20317;-83
2022/03/25 06:23:35;;;;;;;25.00;16.50;;;;;;;9.26;45.03;99759.22;6920887;28;20298;-81
2022/03/25 06:26:57;;;;;;;23.40;16.07;;;;;;;9.55;44.43;99762.13;6920577;28;20238;-81
2022/03/25 06:30:20;;;;;;;25.03;17.17;;;;;;;9.94;43.25;99761.09;6919846;28;20648;-81
2022/03/25 06:33:41;;;;;;;24.03;17.40;;;;;;;10.07;42.53;99771.28;6921244;28;20298;-81
2022/03/25 06:37:05;;;;;;;25.47;16.97;;;;;;;10.20;42.35;99763.44;6920344;28;20235;-81
2022/03/25 06:40:27;;;;;;;24.17;16.07;;;;;;;10.53;42.09;99767.59;6917751;28;20232;-79
2022/03/25 06:43:49;;;;;;;24.47;17.80;;;;;;;10.60;42.61;99765.84;6916720;28;20744;-79
2022/03/25 06:47:11;;;;;;;20.93;15.10;;;;;;;10.47;42.90;99761.06;6916982;28;20239;-78
2022/03/25 06:50:33;;;;;;;25.80;16.93;;;;;;;10.57;42.74;99779.69;6917702;28;20211;-79
2022/03/25 06:53:57;;;;;;;24.77;16.03;;;;;;;11.20;41.61;99777.38;6918876;28;20692;-79
2022/03/25 06:57:19;;;;;;;23.07;16.10;;;;;;;11.27;41.65;99740.53;6918176;28;20258;-80
2022/03/25 07:00:41;;;;;;;24.37;15.70;;;;;;;11.43;41.18;99770.00;6918517;28;20278;-80
2022/03/25 07:04:03;;;;;;;24.77;17.00;;;;;;;11.65;41.14;99779.91;6918688;28;20180;-80
2022/03/25 07:07:27;;;;;;;24.03;16.03;;;;;;;11.68;40.34;99782.25;6920615;28;20224;-80
2022/03/25 07:10:50;;;;;;;24.33;16.63;;;;;;;11.80;40.54;99769.94;6927635;28;20203;-81
2022/03/25 07:14:12;;;;;;;25.73;16.83;;;;;;;12.54;38.54;99750.53;6927980;28;20211;-81
2022/03/25 07:17:34;;;;;;;23.47;16.33;;;;;;;13.32;37.03;99783.63;6927612;28;20722;-80
2022/03/25 07:20:58;;;;;;;25.40;16.80;;;;;;;13.07;37.11;99768.91;6929868;28;20234;-81
2022/03/25 07:24:20;;;;;;;23.73;16.80;;;;;;;12.59;39.06;99788.66;6923282;28;20666;-79
2022/03/25 07:27:45;;;;;;;27.53;18.10;;;;;;;12.45;39.48;99793.09;6916691;28;20224;-80
2022/03/25 07:31:07;;;;;;;28.03;19.23;;;;;;;13.06;38.32;99792.44;6917318;28;20729;-79
2022/03/25 07:34:28;;;;;;;28.50;19.90;;;;;;;13.08;38.63;99779.53;6921874;28;20210;-79
2022/03/25 07:37:50;;;;;;;24.90;18.13;;;;;;;13.35;38.04;99797.66;6916585;28;20224;-79
2022/03/25 07:41:12;;;;;;;26.90;17.43;;;;;;;13.88;37.64;99796.91;6916720;28;20229;-79
2022/03/25 07:44:36;;;;;;;23.90;18.47;;;;;;;14.34;36.44;99788.94;6915655;28;20223;-79
2022/03/25 07:47:57;;;;;;;24.80;18.10;;;;;;;14.21;36.75;99807.91;6915744;28;20251;-78
2022/03/25 07:51:19;;;;;;;27.17;18.80;;;;;;;14.09;37.75;99801.34;6916250;28;20345;-79
2022/03/25 07:54:41;;;;;;;27.63;19.10;;;;;;;14.57;36.96;99801.06;6915798;28;20210;-78
2022/03/25 07:58:02;;;;;;;24.33;18.80;;;;;;;14.14;37.33;99799.69;6915000;28;20232;-79
2022/03/25 08:01:26;;;;;;;30.53;18.93;;;;;;;14.68;36.10;99797.75;6915540;28;20236;-79
2022/03/25 08:04:47;;;;;;;26.90;17.27;;;;;;;15.76;33.71;99798.91;6916021;28;20234;-79
2022/03/25 08:08:10;;;;;;;23.17;17.27;;;;;;;15.88;33.32;99799.09;6915143;28;20229;-80
2022/03/25 08:11:31;;;;;;;23.50;17.57;;;;;;;15.70;33.85;99799.78;6915623;28;20305;-79
2022/03/25 08:14:53;;;;;;;24.20;17.63;;;;;;;15.87;33.45;99800.16;6915911;28;20214;-80
2022/03/25 08:18:17;;;;;;;23.87;17.47;;;;;;;16.25;32.66;99798.31;6914782;28;20631;-79
2022/03/25 08:21:38;;;;;;;27.07;17.80;;;;;;;16.17;33.64;99801.28;6915755;28;20232;-80
2022/03/25 08:28:39;;;;;;;25.03;18.53;;;;;;;17.02;32.19;99796.13;6913943;28;20744;-80
2022/03/25 08:32:01;;;;;;;25.57;18.60;;;;;;;16.61;32.45;99796.66;6915136;28;20204;-79
2022/03/25 08:35:24;;;;;;;21.20;17.43;;;;;;;16.40;33.02;99810.59;6915051;28;20346;-79
2022/03/25 08:38:46;;;;;;;24.30;17.37;;;;;;;16.36;32.75;99806.63;6914442;28;20223;-79
2022/03/25 08:42:08;;;;;;;24.20;16.97;;;;;;;15.70;33.99;99809.81;6915194;28;20262;-78
2022/03/25 08:45:30;;;;;;;25.00;18.50;;;;;;;16.86;33.03;99793.97;6914260;28;20290;-79
2022/03/25 08:48:52;;;;;;;27.00;17.83;;;;;;;16.76;32.43;99767.19;6914515;28;20313;-79
2022/03/25 08:52:16;;;;;;;27.10;18.23;;;;;;;17.57;31.61;99789.78;6915084;28;20268;-79
2022/03/25 08:55:38;;;;;;;28.77;19.60;;;;;;;17.75;30.92;99767.97;6914813;28;20238;-79
2022/03/25 08:58:59;;;;;;;24.10;18.73;;;;;;;18.02;30.24;99774.75;6914816;28;20727;-79
2022/03/25 09:02:22;;;;;;;30.47;20.20;;;;;;;18.64;29.75;99782.53;6914787;28;20234;-79
2022/03/25 09:05:43;;;;;;;25.67;18.80;;;;;;;18.42;30.01;99784.97;6914659;28;20207;-79
2022/03/25 09:09:06;;;;;;;24.87;18.33;;;;;;;18.56;29.64;99793.78;6915255;28;20228;-80
2022/03/25 09:12:28;;;;;;;28.97;20.20;;;;;;;19.17;28.68;99777.88;6914824;28;20657;-79
2022/03/25 09:15:50;;;;;;;27.27;19.67;;;;;;;18.23;29.65;99796.94;6914174;28;20583;-79
2022/03/25 09:19:12;;;;;;;27.30;20.13;;;;;;;18.76;28.65;99780.69;6914922;28;20235;-79
2022/03/25 09:22:34;;;;;;;27.40;19.97;;;;;;;19.16;28.33;99787.97;6914794;28;20227;-79
2022/03/25 09:25:58;;;;;;;30.10;19.97;;;;;;;19.59;26.89;99788.50;6937523;28;20192;-80
2022/03/25 09:29:19;;;;;;;31.13;21.63;;;;;;;19.62;27.18;99778.97;6927465;28;20230;-79
2022/03/25 09:32:41;;;;;;;29.27;21.47;;;;;;;19.57;27.18;99781.63;6915530;28;20245;-79
2022/03/25 09:36:03;;;;;;;33.20;20.70;;;;;;;20.33;26.58;99774.78;6913555;28;20247;-79
2022/03/25 09:39:25;;;;;;;32.07;23.13;;;;;;;20.72;25.55;99773.88;6917959;28;20703;-79
2022/03/25 09:42:50;;;;;;;29.17;21.17;;;;;;;20.77;25.18;99780.28;6920447;28;20234;-80
2022/03/25 09:46:12;;;;;;;34.27;22.53;;;;;;;20.95;24.86;99770.19;6918207;28;20215;-79
2022/03/25 09:49:33;;;;;;;31.43;21.47;;;;;;;;;;6919510;28;20235;-80
2022/03/25 09:52:55;;;;;;;29.60;22.10;;;;;;;20.88;25.50;99781.31;6919022;28;20349;-80
2022/03/25 09:56:17;;;;;;;31.10;21.27;;;;;;;21.08;24.74;99785.22;6918847;28;20296;-79
2022/03/25 09:59:40;;;;;;;32.97;22.00;;;;;;;22.40;23.07;99779.47;6919509;28;20686;-80
2022/03/25 10:03:02;;;;;;;30.93;21.80;;;;;;;22.33;23.13;99778.00;6918960;28;20318;-81
2022/03/25 10:06:24;;;;;;;30.73;22.67;;;;;;;22.16;23.45;99766.25;6918157;28;20209;-80
2022/03/25 10:09:47;;;;;;;29.27;21.80;;;;;;;21.64;24.01;99764.97;6918972;28;20223;-79
2022/03/25 10:13:08;;;;;;;35.20;22.13;;;;;;;20.83;23.83;99773.00;6918728;28;20641;-79
2022/03/25 10:16:32;;;;;;;32.77;22.67;;;;;;;20.38;24.95;99763.94;6917753;28;20216;-79
2022/03/25 10:19:54;;;;;;;30.20;23.47;;;;;;;20.60;25.09;99769.53;6918880;28;20231;-80
2022/03/25 10:23:17;;;;;;;30.27;21.47;;;;;;;21.91;24.01;99744.81;6918610;28;20799;-80
2022/03/25 10:26:38;;;;;;;32.73;22.67;;;;;;;22.20;23.55;99754.47;6917998;28;20675;-79
2022/03/25 10:30:01;;;;;;;26.83;20.70;;;;;;;22.57;22.43;99754.66;6918522;28;20213;-80
2022/03/25 10:33:27;;;;;;;29.07;22.00;;;;;;;21.18;24.79;99751.69;6919439;28;20231;-82
2022/03/25 10:37:00;;;;;;;27.87;21.60;;;;;;;22.38;23.39;99753.31;6918484;28;20204;-81
2022/03/25 10:40:21;;;;;;;30.00;23.10;;;;;;;21.58;23.86;99752.25;6918078;28;20194;-79
2022/03/25 10:44:04;;;;;;;31.20;24.23;;;;;;;22.48;22.72;99757.03;6917228;28;20704;-80
2022/03/25 10:47:27;;;;;;;28.53;22.60;;;;;;;23.23;22.94;99738.50;6914235;28;20251;-79
2022/03/25 10:51:01;;;;;;;32.60;23.20;;;;;;;23.14;23.55;99728.22;6916613;28;20246;-80
2022/03/25 10:54:24;;;;;;;31.43;23.83;;;;;;;22.14;22.79;99733.53;6918195;28;20812;-80
2022/03/25 10:57:53;;;;;;;30.93;22.63;;;;;;;22.50;23.14;99738.38;6917439;28;20227;-80
2022/03/25 11:01:15;;;;;;;29.10;22.57;;;;;;;22.47;23.11;99729.81;6917560;28;20704;-80
2022/03/25 11:04:36;;;;;;;31.17;22.80;;;;;;;22.38;22.70;99732.19;6917317;28;20341;-80
2022/03/25 11:08:00;;;;;;;34.30;23.10;;;;;;;23.98;21.32;99719.69;6917285;28;20257;-79
2022/03/25 11:11:22;;;;;;;31.53;23.23;;;;;;;22.69;22.98;99722.31;6917546;28;20243;-80
2022/03/25 11:14:43;;;;;;;30.90;23.27;;;;;;;23.98;22.33;99719.69;6917368;28;20595;-81
2022/03/25 11:18:05;;;;;;;30.03;21.90;;;;;;;24.23;21.65;99706.00;6916540;28;20223;-79
2022/03/25 11:21:28;;;;;;;32.63;25.17;;;;;;;23.64;21.89;99712.88;6917295;28;20722;-80
2022/03/25 11:24:54;;;;;;;29.63;22.83;;;;;;;23.60;21.42;99699.94;6917764;28;20272;-80
2022/03/25 11:28:19;;;;;;;30.13;22.17;;;;;;;23.56;21.95;99701.56;6916413;28;20221;-80
2022/03/25 11:32:05;;;;;;;31.93;24.13;;;;;;;22.27;22.77;99707.59;6917336;28;20218;-80
2022/03/25 11:35:27;;;;;;;24.47;20.93;;;;;;;22.95;21.80;99700.28;6918126;28;20196;-80
2022/03/25 11:39:16;;;;;;;32.80;23.60;;;;;;;23.84;21.66;99699.19;6916307;28;20263;-81
2022/03/25 11:42:41;;;;;;;31.30;22.70;;;;;;;24.28;20.27;99689.47;6916769;28;20215;-79
2022/03/25 11:46:06;;;;;;;25.83;21.63;;;;;;;24.37;19.74;99685.06;6915269;28;20222;-79
2022/03/25 11:49:29;;;;;;;27.30;21.53;;;;;;;24.86;18.90;99679.91;6916107;28;20315;-79
2022/03/25 11:52:51;;;;;;;24.80;19.93;;;;;;;24.64;18.19;99671.91;6916735;28;20211;-80
2022/03/25 11:56:12;;;;;;;27.03;20.13;;;;;;;25.19;19.36;99673.81;6916225;28;20692;-80
2022/03/25 11:59:48;;;;;;;27.57;21.30;;;;;;;24.05;18.66;99667.91;6916009;28;20228;-80
2022/03/25 12:03:12;;;;;;;26.70;21.23;;;;;;;23.97;19.47;99673.97;6915565;28;20616;-80
2022/03/25 12:06:58;;;;;;;26.40;21.53;;;;;;;24.38;19.49;99661.94;6915479;28;20214;-80
2022/03/25 12:10:52;;;;;;;25.40;20.23;;;;;;;24.77;19.13;99657.56;6916455;28;20196;-80
2022/03/25 12:14:14;;;;;;;23.77;19.70;;;;;;;24.66;19.36;99666.13;6905484;28;20306;-80
2022/03/25 12:17:37;;;;;;;25.00;22.33;;;;;;;22.99;20.54;99657.41;6915107;28;20743;-80
2022/03/25 12:20:59;;;;;;;25.90;20.70;;;;;;;24.73;18.72;99633.56;6916204;28;20665;-80
2022/03/25 12:24:21;;;;;;;24.77;20.50;;;;;;;25.17;18.23;99629.06;6915416;28;20228;-80
2022/03/25 12:27:43;;;;;;;24.93;19.97;;;;;;;26.11;17.72;99650.03;6915658;28;20232;-80
2022/03/25 12:31:05;;;;;;;23.33;20.13;;;;;;;25.39;17.93;99640.66;6916791;28;20207;-82
2022/03/25 12:34:32;;;;;;;23.37;20.80;;;;;;;24.29;18.82;99643.41;6915957;28;20247;-79
2022/03/25 12:38:14;;;;;;;25.23;20.27;;;;;;;25.27;18.81;99638.22;6914835;28;20227;-80
2022/03/25 12:41:35;;;;;;;25.20;20.90;;;;;;;24.69;18.43;99622.25;6915763;28;20220;-80
2022/03/25 12:44:57;;;;;;;27.50;21.23;;;;;;;25.04;18.62;99635.19;6914204;28;20203;-80
2022/03/25 12:48:20;;;;;;;24.00;20.67;;;;;;;25.62;17.81;99621.53;6914797;28;20270;-80
2022/03/25 12:51:55;;;;;;;25.23;20.43;;;;;;;24.52;18.63;99601.53;6915568;28;20211;-80
2022/03/25 12:55:17;;;;;;;27.17;21.57;;;;;;;25.43;17.52;99614.94;6916524;28;20189;-80
2022/03/25 12:58:40;;;;;;;24.97;20.53;;;;;;;24.44;17.81;99610.38;6916062;28;20231;-80
2022/03/25 13:02:06;;;;;;;26.27;20.30;;;;;;;24.21;18.62;99616.41;6915690;28;20318;-80
2022/03/25 13:05:28;;;;;;;27.43;22.00;;;;;;;23.37;18.86;99617.78;6916031;28;20206;-80
2022/03/25 13:09:01;;;;;;;26.40;20.80;;;;;;;25.05;18.21;99604.53;6915645;28;20733;-80
2022/03/25 13:12:28;;;;;;;27.00;21.13;;;;;;;24.64;18.11;99558.81;6915527;28;20331;-80
2022/03/25 13:15:50;;;;;;;24.60;20.27;;;;;;;24.46;18.15;99589.69;6915061;28;20180;-80
2022/03/25 13:19:12;;;;;;;26.27;20.90;;;;;;;23.68;18.89;99575.47;6915209;28;20282;-80
2022/03/25 13:22:33;;;;;;;28.63;22.13;;;;;;;23.07;18.85;99599.13;6915534;28;20246;-80
2022/03/25 13:25:58;;;;;;;25.57;20.93;;;;;;;24.24;18.13;99594.63;6915320;28;20695;-80
2022/03/25 13:29:19;;;;;;;28.37;22.07;;;;;;;24.84;17.66;99597.41;6916134;28;20235;-80
2022/03/25 13:32:41;;;;;;;28.67;21.83;;;;;;;25.23;17.02;99592.91;6915206;28;20208;-80
2022/03/25 13:36:04;;;;;;;24.73;20.57;;;;;;;24.58;17.59;99594.94;6914490;28;20221;-82
2022/03/25 13:39:32;;;;;;;23.73;19.47;;;;;;;24.72;17.56;99588.59;6915374;28;20704;-80
2022/03/25 13:42:56;;;;;;;23.33;18.50;;;;;;;23.96;18.50;99589.63;6915283;28;20292;-81
2022/03/25 13:46:22;;;;;;;21.83;18.13;;;;;;;24.77;17.81;99585.03;6914861;28;20211;-81
2022/03/25 13:49:43;;;;;;;25.13;19.73;;;;;;;23.88;17.86;99579.16;6915496;28;20563;-79
2022/03/25 13:53:10;;;;;;;21.23;17.60;;;;;;;24.28;17.82;99587.47;6915507;28;20208;-80
2022/03/25 13:56:36;;;;;;;21.10;17.67;;;;;;;24.01;18.00;99575.06;6914560;28;20231;-81
2022/03/25 14:00:11;;;;;;;21.87;16.80;;;;;;;24.97;16.84;99565.66;6914993;28;20239;-81
2022/03/25 14:03:32;;;;;;;21.83;17.67;;;;;;;25.19;16.56;99572.47;6915387;28;20680;-80
2022/03/25 14:06:55;;;;;;;22.50;17.20;;;;;;;25.26;16.41;99580.50;6914718;28;20267;-80
2022/03/25 14:10:17;;;;;;;22.07;18.17;;;;;;;25.37;16.10;99562.81;6915158;28;20248;-80
2022/03/25 14:13:56;;;;;;;23.27;17.93;;;;;;;23.94;17.03;99572.56;6915075;28;20678;-80
2022/03/25 14:17:19;;;;;;;23.77;19.77;;;;;;;22.85;17.44;99572.88;6912870;28;20232;-81
2022/03/25 14:20:41;;;;;;;20.60;17.73;;;;;;;22.65;18.05;99565.31;6915374;28;20692;-80
2022/03/25 14:27:43;;;;;;;22.73;18.47;;;;;;;23.82;17.03;99565.59;6919850;28;20230;-81
2022/03/25 14:31:05;;;;;;;22.50;18.37;;;;;;;23.43;17.04;99536.88;6920622;28;20235;-80
2022/03/25 14:34:28;;;;;;;25.17;19.13;;;;;;;24.14;15.96;99536.75;6939217;28;20273;-81
2022/03/25 14:37:50;;;;;;;25.30;18.17;;;;;;;24.06;16.07;99562.09;6931803;28;20228;-80
2022/03/25 14:41:11;;;;;;;24.77;18.57;;;;;;;23.56;16.44;99563.88;6919817;28;20200;-80
2022/03/25 14:44:33;;;;;;;23.73;19.90;;;;;;;22.82;17.14;99543.13;6918657;28;20973;-80
2022/03/25 14:47:55;;;;;;;26.47;18.77;;;;;;;23.83;17.04;99498.41;6919367;28;20238;-80
2022/03/25 14:51:18;;;;;;;21.17;18.17;;;;;;;23.23;16.87;99556.88;6919844;28;20212;-80
2022/03/25 14:54:41;;;;;;;23.53;18.57;;;;;;;23.80;16.39;99552.13;6920182;28;20215;-81
2022/03/25 14:58:03;;;;;;;22.00;17.63;;;;;;;24.43;15.78;99531.53;6919041;28;20230;-80
2022/03/25 15:01:25;;;;;;;22.60;18.73;;;;;;;23.83;16.30;99526.78;6919569;28;20212;-80
2022/03/25 15:04:46;;;;;;;24.33;19.20;;;;;;;24.00;16.52;99546.66;6918797;28;20227;-81
2022/03/25 15:08:10;;;;;;;23.53;19.30;;;;;;;22.84;17.54;99558.28;6918791;28;20880;-81
2022/03/25 15:11:31;;;;;;;22.17;18.70;;;;;;;23.01;17.37;99560.88;6919335;28;20223;-80
2022/03/25 15:14:53;;;;;;;22.97;19.27;;;;;;;22.82;16.81;99541.22;6918905;28;20210;-80
2022/03/25 15:18:16;;;;;;;24.20;19.67;;;;;;;23.40;16.45;99551.16;6918563;28;20259;-80
2022/03/25 15:21:38;;;;;;;24.37;19.17;;;;;;;23.17;16.82;99519.44;6919713;28;20214;-81
2022/03/25 15:25:01;;;;;;;27.43;19.57;;;;;;;22.76;17.55;99555.19;6920117;28;20236;-80
2022/03/25 15:28:22;;;;;;;27.10;19.20;;;;;;;23.11;16.65;99545.25;6945385;28;20663;-80
2022/03/25 15:35:23;;;;;;;21.33;17.90;;;;;;;23.56;16.57;99530.84;6945259;28;20195;-80
2022/03/25 15:38:44;;;;;;;22.57;17.90;;;;;;;23.25;17.03;99538.16;6945758;28;20361;-80
2022/03/25 15:42:08;;;;;;;24.30;19.03;;;;;;;22.43;17.28;99530.81;6945824;28;20298;-81
2022/03/25 15:45:30;;;;;;;21.97;19.03;;;;;;;23.34;17.31;99538.47;6944894;28;20242;-81
2022/03/25 15:48:51;;;;;;;23.33;18.70;;;;;;;23.60;16.63;99505.25;6945578;28;20228;-80
2022/03/25 15:52:13;;;;;;;23.30;19.37;;;;;;;23.04;16.81;99525.41;6955443;28;20676;-81